createdAt,value
2019-01-11T00:01:51.267Z,8.03
2019-01-11T00:04:20.722Z,3.83
2019-01-11T00:06:50.270Z,4.07
2019-01-11T00:09:19.735Z,5.93
2019-01-11T00:11:49.209Z,4.73
2019-01-11T00:14:18.812Z,3.87
2019-01-11T00:17:07.528Z,6.43
2019-01-11T00:19:37.018Z,8.60
2019-01-11T00:22:06.936Z,5.73
2019-01-11T00:24:36.395Z,6.27
2019-01-11T00:27:06.082Z,10.00
2019-01-11T00:29:35.642Z,4.80
2019-01-11T00:32:05.363Z,5.80
2019-01-11T00:34:34.857Z,6.03
2019-01-11T00:37:04.848Z,5.70
2019-01-11T00:39:34.310Z,5.87
2019-01-11T00:42:03.977Z,5.90
2019-01-11T00:44:33.499Z,5.70
2019-01-11T00:47:03.103Z,5.57
2019-01-11T00:49:32.572Z,4.50
2019-01-11T00:52:02.020Z,8.97
2019-01-11T00:54:31.488Z,5.47
2019-01-11T00:57:00.940Z,7.27
2019-01-11T00:59:30.407Z,6.70
2019-01-11T01:02:00.125Z,7.03
2019-01-11T01:04:29.657Z,6.57
2019-01-11T01:06:59.269Z,5.20
2019-01-11T01:09:28.889Z,12.53
2019-01-11T01:11:58.439Z,4.30
2019-01-11T01:14:27.943Z,4.10
2019-01-11T01:16:58.451Z,6.97
2019-01-11T01:19:28.023Z,6.23
2019-01-11T01:21:57.497Z,4.40
2019-01-11T01:24:26.961Z,4.27
2019-01-11T01:26:56.462Z,7.67
2019-01-11T01:29:25.911Z,5.97
2019-01-11T01:31:55.368Z,6.57
2019-01-11T01:34:24.839Z,6.07
2019-01-11T01:36:54.424Z,7.37
2019-01-11T01:39:23.871Z,6.00
2019-01-11T01:41:53.330Z,7.13
2019-01-11T01:44:22.825Z,6.37
2019-01-11T01:46:52.378Z,4.40
2019-01-11T01:49:26.500Z,8.57
2019-01-11T01:51:53.120Z,6.97
2019-01-11T01:54:22.792Z,6.00
2019-01-11T01:56:52.322Z,4.90
2019-01-11T01:59:21.848Z,6.43
2019-01-11T02:01:51.312Z,5.20
2019-01-11T02:04:20.869Z,5.63
2019-01-11T02:06:50.515Z,6.70
2019-01-11T02:09:19.985Z,9.33
2019-01-11T02:11:49.462Z,9.23
2019-01-11T02:14:18.961Z,7.07
2019-01-11T02:16:48.694Z,6.30
2019-01-11T02:19:18.478Z,7.53
2019-01-11T02:21:47.984Z,7.87
2019-01-11T02:24:17.524Z,6.97
2019-01-11T02:26:47.095Z,12.53
2019-01-11T02:29:16.573Z,5.93
2019-01-11T02:31:46.019Z,6.90
2019-01-11T02:34:15.494Z,7.43
2019-01-11T02:36:44.983Z,7.50
2019-01-11T02:39:14.568Z,11.07
2019-01-11T02:41:44.002Z,7.27
2019-01-11T02:44:13.500Z,7.53
2019-01-11T02:46:42.954Z,11.30
2019-01-11T02:49:12.691Z,9.63
2019-01-11T02:51:42.156Z,11.57
2019-01-11T02:54:11.620Z,11.40
2019-01-11T02:56:41.099Z,7.43
2019-01-11T02:59:10.602Z,8.83
2019-01-11T03:01:40.088Z,10.90
2019-01-11T03:04:09.769Z,9.57
2019-01-11T03:06:39.309Z,9.47
2019-01-11T03:09:09.207Z,12.87
2019-01-11T03:11:38.724Z,12.80
2019-01-11T03:14:08.307Z,12.77
2019-01-11T03:16:37.897Z,10.57
2019-01-11T03:19:07.431Z,10.27
2019-01-11T03:21:36.941Z,12.33
2019-01-11T03:24:06.375Z,15.63
2019-01-11T03:26:35.869Z,12.87
2019-01-11T03:29:05.421Z,15.70
2019-01-11T03:31:35.632Z,13.70
2019-01-11T03:34:05.469Z,12.73
2019-01-11T03:36:34.927Z,13.70
2019-01-11T03:39:07.137Z,16.30
2019-01-11T03:41:46.030Z,16.03
2019-01-11T03:44:15.576Z,14.20
2019-01-11T03:46:45.094Z,17.23
2019-01-11T03:49:14.646Z,19.27
2019-01-11T03:51:44.231Z,15.57
2019-01-11T03:54:13.750Z,15.43
2019-01-11T03:56:43.331Z,20.37
2019-01-11T03:59:12.804Z,14.93
2019-01-11T04:01:42.268Z,17.13
2019-01-11T04:04:11.736Z,17.30
2019-01-11T04:06:42.038Z,21.57
2019-01-11T04:09:11.671Z,21.53
2019-01-11T04:11:41.289Z,17.13
2019-01-11T04:14:10.802Z,20.30
2019-01-11T04:16:40.272Z,19.93
2019-01-11T04:19:13.451Z,22.67
2019-01-11T04:21:51.222Z,17.70
2019-01-11T04:24:21.773Z,22.10
2019-01-11T04:26:51.428Z,20.53
2019-01-11T04:29:20.911Z,22.87
2019-01-11T04:31:50.417Z,18.70
2019-01-11T04:34:19.876Z,20.67
2019-01-11T04:36:49.505Z,30.47
2019-01-11T04:39:19.042Z,18.60
2019-01-11T04:41:48.536Z,26.30
2019-01-11T04:44:18.028Z,25.47
2019-01-11T04:46:47.613Z,22.53
2019-01-11T04:49:17.176Z,22.53
2019-01-11T04:51:46.721Z,27.47
2019-01-11T04:54:16.285Z,26.23
2019-01-11T04:56:45.769Z,23.13
2019-01-11T04:59:15.285Z,25.33
2019-01-11T05:01:44.983Z,29.07
2019-01-11T05:04:14.495Z,24.97
2019-01-11T05:06:43.961Z,26.07
2019-01-11T05:09:13.521Z,23.43
2019-01-11T05:11:43.005Z,29.83
2019-01-11T05:14:12.595Z,25.27
2019-01-11T05:16:42.153Z,26.93
2019-01-11T05:19:11.647Z,22.80
2019-01-11T05:21:41.129Z,24.70
2019-01-11T05:24:10.605Z,29.77
2019-01-11T05:26:40.172Z,24.60
2019-01-11T05:29:09.639Z,29.47
2019-01-11T05:31:39.149Z,25.97
2019-01-11T05:34:08.614Z,30.60
2019-01-11T05:36:38.117Z,29.43
2019-01-11T05:39:08.760Z,31.57
2019-01-11T05:41:38.250Z,27.67
2019-01-11T05:44:07.880Z,27.57
2019-01-11T05:46:37.359Z,32.77
2019-01-11T05:49:06.814Z,33.03
2019-01-11T05:51:36.372Z,28.10
2019-01-11T05:54:06.086Z,33.53
2019-01-11T05:56:35.562Z,30.23
2019-01-11T05:59:07.037Z,31.30
2019-01-11T06:01:36.592Z,31.23
2019-01-11T06:04:24.361Z,37.27
2019-01-11T06:07:09.311Z,42.60
2019-01-11T06:09:38.921Z,35.30
2019-01-11T06:12:08.516Z,33.87
2019-01-11T06:14:37.990Z,37.40
2019-01-11T06:17:07.623Z,40.77
2019-01-11T06:19:37.114Z,35.67
2019-01-11T06:22:06.685Z,34.20
2019-01-11T06:24:36.225Z,35.90
2019-01-11T06:27:06.068Z,40.13
2019-01-11T06:29:35.531Z,36.13
2019-01-11T06:32:05.257Z,34.27
2019-01-11T06:34:34.736Z,34.03
2019-01-11T06:37:04.531Z,34.70
2019-01-11T06:39:34.021Z,33.80
2019-01-11T06:42:11.281Z,36.97
2019-01-11T06:44:40.809Z,29.77
2019-01-11T06:47:10.325Z,35.40
2019-01-11T06:49:40.067Z,34.13
2019-01-11T06:52:09.761Z,37.07
2019-01-11T06:54:39.287Z,33.90
2019-01-11T06:57:08.924Z,29.40
2019-01-11T06:59:38.501Z,34.37
2019-01-11T07:02:08.073Z,31.70
2019-01-11T07:04:37.565Z,28.90
2019-01-11T07:07:07.083Z,29.20
2019-01-11T07:09:36.632Z,30.27
2019-01-11T07:12:06.177Z,30.77
2019-01-11T07:14:36.292Z,30.37
2019-01-11T07:17:06.534Z,28.47
2019-01-11T07:19:36.007Z,32.23
2019-01-11T07:22:05.597Z,30.40
2019-01-11T07:24:35.763Z,32.33
2019-01-11T07:27:05.357Z,33.47
2019-01-11T07:29:34.954Z,31.43
2019-01-11T07:32:04.594Z,29.97
2019-01-11T07:34:34.073Z,28.37
2019-01-11T07:37:04.510Z,32.00
2019-01-11T07:39:34.790Z,32.40
2019-01-11T07:42:04.800Z,32.37
2019-01-11T07:44:34.388Z,29.43
2019-01-11T07:47:04.090Z,38.03
2019-01-11T07:49:33.552Z,33.07
2019-01-11T07:52:03.125Z,35.17
2019-01-11T07:54:32.598Z,33.63
2019-01-11T07:57:02.092Z,35.17
2019-01-11T07:59:31.664Z,36.30
2019-01-11T08:02:01.210Z,32.53
2019-01-11T08:04:30.812Z,37.97
2019-01-11T08:07:00.384Z,33.60
2019-01-11T08:09:29.888Z,36.37
2019-01-11T08:11:59.410Z,33.80
2019-01-11T08:14:28.877Z,36.97
2019-01-11T08:16:58.440Z,29.93
2019-01-11T08:19:27.896Z,26.37
2019-01-11T08:21:57.448Z,33.83
2019-01-11T08:24:26.901Z,31.67
2019-01-11T08:26:56.464Z,35.77
2019-01-11T08:29:26.002Z,29.17
2019-01-11T08:31:55.743Z,27.80
2019-01-11T08:34:25.191Z,27.43
2019-01-11T08:36:54.696Z,26.83
2019-01-11T08:39:24.229Z,28.77
2019-01-11T08:41:53.739Z,27.13
2019-01-11T08:44:23.318Z,25.20
2019-01-11T08:46:52.948Z,21.50
2019-01-11T08:49:22.415Z,26.70
2019-01-11T08:51:51.912Z,27.07
2019-01-11T08:54:21.455Z,24.87
2019-01-11T08:56:50.931Z,19.50
2019-01-11T08:59:20.437Z,24.73
2019-01-11T09:01:49.897Z,22.03
2019-01-11T09:04:19.388Z,21.03
2019-01-11T09:06:49.031Z,18.83
2019-01-11T09:09:18.591Z,20.93
2019-01-11T09:11:48.075Z,22.50
2019-01-11T09:14:48.915Z,18.90
2019-01-11T09:17:19.302Z,21.47
2019-01-11T09:19:48.872Z,17.47
2019-01-11T09:22:18.545Z,18.07
2019-01-11T09:24:48.068Z,20.50
2019-01-11T09:27:17.540Z,20.90
2019-01-11T09:29:47.166Z,21.27
2019-01-11T09:32:16.632Z,20.43
2019-01-11T09:34:46.112Z,16.83
2019-01-11T09:37:15.568Z,18.73
2019-01-11T09:39:45.135Z,19.00
2019-01-11T09:42:14.822Z,20.63
2019-01-11T09:44:44.302Z,18.50
2019-01-11T09:47:13.944Z,21.03
2019-01-11T09:49:43.560Z,19.30
2019-01-11T09:52:13.180Z,19.57
2019-01-11T09:54:44.447Z,22.03
2019-01-11T09:57:13.977Z,18.30
2019-01-11T09:59:43.577Z,19.23
2019-01-11T10:02:35.338Z,23.83
2019-01-11T10:05:06.916Z,20.93
2019-01-11T10:07:48.556Z,20.13
2019-01-11T10:10:18.093Z,19.03
2019-01-11T10:12:48.559Z,19.27
2019-01-11T10:15:18.324Z,20.33
2019-01-11T10:17:49.667Z,24.93
2019-01-11T10:20:19.420Z,20.70
2019-01-11T10:22:49.058Z,29.07
2019-01-11T10:25:18.808Z,21.60
2019-01-11T10:27:48.337Z,22.87
2019-01-11T10:30:19.159Z,21.33
2019-01-11T10:32:48.773Z,24.90
2019-01-11T10:35:18.585Z,20.73
2019-01-11T10:37:48.178Z,22.47
2019-01-11T10:40:18.332Z,24.30
2019-01-11T10:42:48.201Z,23.00
2019-01-11T10:45:22.499Z,24.07
2019-01-11T10:47:55.199Z,26.03
2019-01-11T10:50:24.705Z,25.53
2019-01-11T10:52:54.189Z,28.70
2019-01-11T10:55:24.252Z,28.63
2019-01-11T10:57:53.846Z,27.50
2019-01-11T11:00:25.620Z,25.20
2019-01-11T11:02:56.071Z,29.03
2019-01-11T11:05:25.735Z,29.37
2019-01-11T11:07:55.323Z,27.73
2019-01-11T11:10:24.916Z,29.07
2019-01-11T11:12:54.386Z,26.83
2019-01-11T11:15:24.142Z,29.30
2019-01-11T11:17:53.750Z,28.93
2019-01-11T11:20:23.271Z,35.93
2019-01-11T11:22:53.671Z,28.77
2019-01-11T11:25:23.372Z,25.27
2019-01-11T11:27:52.922Z,24.83
2019-01-11T11:30:22.716Z,29.53
2019-01-11T11:33:02.546Z,25.37
2019-01-11T11:35:33.030Z,23.47
2019-01-11T11:38:02.864Z,21.67
2019-01-11T11:40:33.075Z,24.13
2019-01-11T11:43:02.682Z,25.57
2019-01-11T11:45:32.678Z,22.90
2019-01-11T11:48:03.750Z,23.80
2019-01-11T11:50:33.485Z,27.13
2019-01-11T11:53:03.044Z,22.17
2019-01-11T11:55:32.701Z,27.57
2019-01-11T11:58:02.171Z,20.80
2019-01-11T12:00:31.816Z,25.53
2019-01-11T12:03:01.328Z,22.87
2019-01-11T12:05:30.933Z,21.03
2019-01-11T12:08:00.485Z,21.90
2019-01-11T12:10:30.033Z,20.80
2019-01-11T12:12:59.613Z,22.27
2019-01-11T12:15:29.213Z,22.07
2019-01-11T12:17:58.739Z,23.27
2019-01-11T12:20:32.676Z,29.40
2019-01-11T12:23:02.426Z,24.43
2019-01-11T12:25:31.988Z,22.00
2019-01-11T12:28:01.535Z,21.67
2019-01-11T12:30:31.135Z,26.97
2019-01-11T12:33:00.821Z,22.20
2019-01-11T12:35:30.311Z,24.07
2019-01-11T12:37:59.755Z,27.53
2019-01-11T12:40:29.257Z,27.93
2019-01-11T12:42:58.798Z,26.57
2019-01-11T12:45:28.328Z,21.83
2019-01-11T12:47:57.876Z,24.10
2019-01-11T12:50:28.091Z,23.70
2019-01-11T12:52:57.714Z,18.47
2019-01-11T12:55:27.376Z,20.27
2019-01-11T12:57:56.889Z,17.07
2019-01-11T13:00:26.529Z,19.60
2019-01-11T13:02:56.071Z,23.07
2019-01-11T13:05:25.696Z,18.57
2019-01-11T13:07:55.246Z,23.60
2019-01-11T13:10:24.848Z,18.80
2019-01-11T13:12:54.518Z,27.53
2019-01-11T13:15:25.039Z,25.83
2019-01-11T13:17:54.566Z,28.67
2019-01-11T13:20:24.464Z,26.50
2019-01-11T13:22:54.194Z,25.20
2019-01-11T13:25:23.691Z,24.03
2019-01-11T13:27:53.211Z,23.07
2019-01-11T13:30:22.864Z,23.50
2019-01-11T13:32:52.460Z,28.37
2019-01-11T13:35:21.904Z,21.50
2019-01-11T13:37:51.488Z,27.90
2019-01-11T13:40:23.262Z,33.67
2019-01-11T13:42:53.111Z,26.03
2019-01-11T13:45:22.724Z,29.23
2019-01-11T13:47:52.406Z,25.70
2019-01-11T13:50:33.178Z,33.40
2019-01-11T13:53:03.112Z,30.43
2019-01-11T13:55:32.601Z,24.67
2019-01-11T13:58:02.139Z,29.17
2019-01-11T14:00:31.863Z,33.63
2019-01-11T14:03:01.428Z,25.57
2019-01-11T14:05:31.049Z,26.40
2019-01-11T14:08:00.533Z,27.73
2019-01-11T14:10:30.151Z,31.43
2019-01-11T14:12:59.723Z,28.33
2019-01-11T14:15:29.328Z,24.33
2019-01-11T14:17:58.881Z,27.93
2019-01-11T14:20:28.430Z,25.50
2019-01-11T14:22:57.980Z,29.97
2019-01-11T14:25:27.629Z,26.60
2019-01-11T14:27:57.257Z,20.93
2019-01-11T14:30:26.910Z,23.40
2019-01-11T14:32:56.615Z,29.33
2019-01-11T14:35:26.135Z,23.53
2019-01-11T14:37:55.735Z,22.57
2019-01-11T14:40:25.296Z,22.17
2019-01-11T14:42:54.868Z,21.87
2019-01-11T14:45:24.436Z,23.37
2019-01-11T14:47:53.970Z,20.47
2019-01-11T14:50:23.438Z,25.40
2019-01-11T14:52:52.992Z,26.27
2019-01-11T14:55:22.502Z,18.53
2019-01-11T14:57:52.266Z,19.53
2019-01-11T15:00:23.508Z,17.57
2019-01-11T15:02:53.146Z,24.67
2019-01-11T15:05:22.592Z,19.27
2019-01-11T15:07:52.074Z,22.23
2019-01-11T15:10:21.532Z,16.40
2019-01-11T15:12:51.175Z,16.60
2019-01-11T15:15:20.630Z,20.20
2019-01-11T15:17:50.100Z,16.93
2019-01-11T15:20:19.956Z,16.63
2019-01-11T15:22:49.464Z,18.80
2019-01-11T15:25:19.092Z,22.13
2019-01-11T15:27:48.575Z,18.13
2019-01-11T15:30:19.698Z,22.47
2019-01-11T15:32:49.412Z,22.27
2019-01-11T15:35:19.562Z,17.93
2019-01-11T15:37:49.195Z,17.47
2019-01-11T15:40:23.978Z,16.60
2019-01-11T15:42:53.481Z,17.57
2019-01-11T15:45:23.060Z,19.40
2019-01-11T15:47:52.829Z,20.83
2019-01-11T15:50:59.907Z,22.07
2019-01-11T15:53:38.864Z,18.20
2019-01-11T15:56:10.443Z,21.80
2019-01-11T15:58:40.059Z,26.03
2019-01-11T16:01:09.635Z,24.87
2019-01-11T16:03:39.122Z,28.03
2019-01-11T16:06:32.500Z,21.13
2019-01-11T16:09:57.559Z,23.07
2019-01-11T16:12:35.837Z,23.10
2019-01-11T16:15:28.622Z,23.53
2019-01-11T16:18:01.159Z,21.40
2019-01-11T16:20:30.647Z,25.83
2019-01-11T16:23:00.279Z,23.20
2019-01-11T16:25:29.979Z,27.37
2019-01-11T16:27:59.788Z,24.47
2019-01-11T16:30:29.330Z,22.27
2019-01-11T16:32:58.910Z,25.57
2019-01-11T16:35:28.525Z,17.23
2019-01-11T16:37:58.119Z,21.10
2019-01-11T16:40:27.684Z,25.80
2019-01-11T16:42:57.204Z,20.23
2019-01-11T16:45:26.707Z,18.47
2019-01-11T16:47:56.304Z,20.93
2019-01-11T16:50:25.866Z,18.90
2019-01-11T16:52:55.373Z,20.80
2019-01-11T16:55:24.901Z,19.40
2019-01-11T16:57:54.396Z,20.20
2019-01-11T17:00:23.925Z,20.67
2019-01-11T17:02:54.462Z,20.27
2019-01-11T17:05:24.072Z,22.93
2019-01-11T17:07:53.652Z,21.03
2019-01-11T17:10:23.226Z,21.90
2019-01-11T17:12:52.810Z,21.53
2019-01-11T17:15:22.500Z,29.70
2019-01-11T17:17:52.149Z,20.93
2019-01-11T17:20:21.758Z,23.43
2019-01-11T17:22:53.236Z,24.53
2019-01-11T17:25:22.462Z,26.50
2019-01-11T17:27:51.939Z,25.70
2019-01-11T17:30:21.451Z,25.07
2019-01-11T17:32:50.919Z,24.90
2019-01-11T17:35:20.563Z,25.63
2019-01-11T17:37:50.121Z,22.83
2019-01-11T17:40:19.677Z,23.40
2019-01-11T17:42:49.233Z,24.47
2019-01-11T17:45:18.881Z,25.20
2019-01-11T17:47:48.356Z,27.10
2019-01-11T17:50:18.897Z,24.13
2019-01-11T17:52:48.508Z,23.57
2019-01-11T17:55:18.188Z,24.03
2019-01-11T17:57:47.799Z,28.50
2019-01-11T18:00:18.429Z,22.50
2019-01-11T18:02:47.934Z,22.17
2019-01-11T18:05:17.719Z,26.23
2019-01-11T18:07:47.363Z,20.27
2019-01-11T18:10:17.030Z,33.00
2019-01-11T18:12:46.626Z,25.13
2019-01-11T18:15:19.332Z,23.07
2019-01-11T18:17:48.939Z,26.73
2019-01-11T18:20:23.850Z,23.20
2019-01-11T18:22:53.394Z,22.77
2019-01-11T18:25:22.891Z,20.77
2019-01-11T18:27:52.404Z,21.30
2019-01-11T18:30:21.947Z,23.03
2019-01-11T18:32:51.484Z,21.67
2019-01-11T18:35:21.016Z,23.33
2019-01-11T18:37:50.561Z,19.80
2019-01-11T18:40:22.609Z,23.17
2019-01-11T18:42:52.313Z,26.87
2019-01-11T18:45:28.364Z,22.77
2019-01-11T18:47:53.169Z,25.80
2019-01-11T18:50:23.434Z,19.23
2019-01-11T18:52:53.008Z,23.93
2019-01-11T18:55:22.552Z,18.63
2019-01-11T18:57:52.034Z,16.47
2019-01-11T19:00:22.974Z,22.03
2019-01-11T19:02:52.521Z,17.30
2019-01-11T19:05:22.071Z,24.13
2019-01-11T19:07:51.783Z,22.07
2019-01-11T19:10:33.982Z,19.30
2019-01-11T19:13:03.483Z,36.03
2019-01-11T19:15:32.983Z,19.73
2019-01-11T19:18:02.533Z,17.50
2019-01-11T19:20:32.335Z,19.40
2019-01-11T19:23:02.854Z,22.37
2019-01-11T19:25:32.428Z,21.40
2019-01-11T19:28:02.005Z,15.13
2019-01-11T19:30:31.724Z,16.87
2019-01-11T19:33:01.310Z,18.80
2019-01-11T19:35:30.898Z,17.77
2019-01-11T19:38:00.405Z,15.20
2019-01-11T19:40:30.033Z,19.90
2019-01-11T19:42:59.557Z,21.80
2019-01-11T19:45:29.192Z,13.10
2019-01-11T19:47:58.831Z,19.93
2019-01-11T19:50:28.554Z,12.83
2019-01-11T19:52:58.082Z,20.50
2019-01-11T19:55:27.642Z,13.57
2019-01-11T19:57:57.143Z,15.70
2019-01-11T20:00:28.819Z,20.97
2019-01-11T20:02:58.712Z,21.17
2019-01-11T20:05:28.790Z,17.97
2019-01-11T20:07:58.580Z,20.40
2019-01-11T20:10:32.598Z,9.97
2019-01-11T20:13:02.410Z,20.17
2019-01-11T20:15:32.330Z,21.60
2019-01-11T20:18:02.184Z,16.53
2019-01-11T20:20:31.754Z,20.70
2019-01-11T20:23:02.331Z,19.07
2019-01-11T20:25:32.346Z,17.97
2019-01-11T20:28:01.964Z,29.87
2019-01-11T20:30:31.541Z,30.27
2019-01-11T20:33:00.992Z,17.37
2019-01-11T20:35:30.551Z,29.70
2019-01-11T20:38:00.178Z,22.33
2019-01-11T20:40:29.698Z,19.70
2019-01-11T20:42:59.172Z,18.97
2019-01-11T20:45:28.713Z,24.90
2019-01-11T20:47:58.201Z,32.47
2019-01-11T20:50:27.780Z,24.83
2019-01-11T20:52:57.505Z,17.67
2019-01-11T20:55:27.387Z,20.37
2019-01-11T20:57:57.173Z,28.03
2019-01-11T21:00:32.531Z,27.73
2019-01-11T21:03:02.957Z,26.90
2019-01-11T21:05:32.727Z,29.00
2019-01-11T21:08:02.241Z,31.33
2019-01-11T21:10:32.004Z,28.53
2019-01-11T21:13:01.633Z,29.07
2019-01-11T21:15:31.124Z,24.83
2019-01-11T21:18:00.723Z,28.67
2019-01-11T21:20:30.276Z,21.80
2019-01-11T21:22:59.742Z,27.87
2019-01-11T21:25:29.369Z,16.67
2019-01-11T21:27:58.830Z,26.27
2019-01-11T21:30:30.393Z,24.63
2019-01-11T21:33:00.179Z,23.77
2019-01-11T21:35:30.172Z,22.53
2019-01-11T21:37:59.715Z,30.43
2019-01-11T21:40:29.196Z,24.23
2019-01-11T21:42:58.778Z,33.70
2019-01-11T21:45:28.362Z,38.33
2019-01-11T21:47:57.984Z,25.60
2019-01-11T21:50:29.141Z,31.13
2019-01-11T21:52:58.948Z,31.53
2019-01-11T21:55:28.629Z,25.13
2019-01-11T21:57:58.286Z,34.30
2019-01-11T22:00:33.890Z,33.60
2019-01-11T22:03:03.431Z,25.73
2019-01-11T22:05:32.952Z,29.60
2019-01-11T22:08:02.480Z,37.50
2019-01-11T22:10:31.965Z,37.97
2019-01-11T22:13:01.494Z,28.90
2019-01-11T22:15:30.970Z,40.80
2019-01-11T22:18:00.420Z,34.20
2019-01-11T22:20:29.976Z,35.27
2019-01-11T22:22:59.468Z,27.70
2019-01-11T22:25:28.924Z,34.83
2019-01-11T22:27:58.389Z,28.80
2019-01-11T22:30:30.537Z,29.83
2019-01-11T22:32:59.133Z,39.97
2019-01-11T22:35:28.699Z,31.10
2019-01-11T22:37:58.179Z,44.40
2019-01-11T22:40:27.723Z,42.27
2019-01-11T22:43:00.594Z,28.87
2019-01-11T22:45:30.228Z,46.87
2019-01-11T22:47:59.721Z,27.87
2019-01-11T22:50:29.263Z,37.20
2019-01-11T22:52:58.808Z,45.70
2019-01-11T22:55:28.389Z,35.10
2019-01-11T22:57:57.869Z,30.23
2019-01-11T23:00:36.467Z,42.27
2019-01-11T23:03:09.811Z,37.37
2019-01-11T23:05:39.369Z,46.37
2019-01-11T23:08:12.253Z,26.83
2019-01-11T23:10:53.515Z,43.73
2019-01-11T23:13:23.035Z,35.30
2019-01-11T23:15:56.298Z,29.30
2019-01-11T23:18:27.504Z,41.00
2019-01-11T23:21:00.144Z,38.70
2019-01-11T23:23:29.691Z,45.77
2019-01-11T23:25:59.244Z,36.43
2019-01-11T23:28:28.724Z,34.83
2019-01-11T23:30:58.345Z,44.03
2019-01-11T23:33:27.820Z,39.17
2019-01-11T23:35:57.308Z,34.60
2019-01-11T23:38:26.840Z,51.73
2019-01-11T23:40:56.446Z,41.27
2019-01-11T23:43:25.994Z,35.23
2019-01-11T23:45:55.558Z,44.30
2019-01-11T23:48:25.010Z,50.17
2019-01-11T23:50:55.343Z,36.77
2019-01-11T23:53:24.838Z,36.73
2019-01-11T23:55:54.402Z,51.57
2019-01-11T23:58:24.010Z,45.00
